Time;durP1;ratioP1;P1;durP2;ratioP2;P2;SDS_P1;SDS_P2;PMS_P1;PMS_P2;Temp;Humidity;BMP_temperature;BMP_pressure;BME280_temperature;BME280_humidity;BME280_pressure;Samples;Min_cycle;Max_cycle;Signal;HPM_P1;HPM_P2
2021/09/11 00:01:42;;;;;;;58.40;3.60;;;17.90;91.60;;;;;;5071840;28;20443;-69
2021/09/11 00:04:08;;;;;;;59.27;3.50;;;17.90;91.50;;;;;;5071409;28;20598;-69
2021/09/11 00:06:37;;;;;;;58.03;2.73;;;17.90;91.30;;;;;;5071313;28;20800;-69
2021/09/11 00:09:03;;;;;;;58.27;3.53;;;17.90;90.80;;;;;;5071549;28;20447;-69
2021/09/11 00:11:30;;;;;;;58.97;3.50;;;17.90;91.00;;;;;;5071467;28;20538;-69
2021/09/11 00:13:57;;;;;;;58.07;2.87;;;17.90;91.80;;;;;;5071600;28;20503;-69
2021/09/11 00:16:24;;;;;;;58.47;3.00;;;17.90;92.00;;;;;;5071541;28;20443;-69
2021/09/11 00:18:51;;;;;;;58.37;2.70;;;17.90;92.80;;;;;;5071321;28;20446;-69
2021/09/11 00:21:18;;;;;;;57.87;3.23;;;17.90;92.80;;;;;;5071201;28;20805;-69
2021/09/11 00:23:46;;;;;;;58.50;3.00;;;17.90;92.80;;;;;;5069785;28;20491;-69
2021/09/11 00:26:13;;;;;;;57.73;2.67;;;17.90;92.80;;;;;;5071414;28;20482;-69
2021/09/11 00:28:40;;;;;;;58.07;2.83;;;17.90;92.80;;;;;;5071637;28;20482;-69
2021/09/11 00:31:08;;;;;;;58.60;2.90;;;17.90;93.10;;;;;;5071440;28;20447;-69
2021/09/11 00:33:35;;;;;;;58.13;3.00;;;17.90;93.20;;;;;;5071130;28;20470;-69
2021/09/11 00:36:02;;;;;;;59.03;4.03;;;17.90;93.30;;;;;;5071581;28;20526;-69
2021/09/11 00:38:29;;;;;;;58.40;3.00;;;17.90;93.60;;;;;;5071429;28;20529;-69
2021/09/11 00:40:57;;;;;;;58.20;3.07;;;17.90;93.60;;;;;;5070964;28;20447;-69
2021/09/11 00:43:26;;;;;;;58.27;3.20;;;17.90;93.60;;;;;;5071467;28;20483;-69
2021/09/11 00:45:53;;;;;;;58.17;3.30;;;17.90;93.70;;;;;;5071237;28;20531;-69
2021/09/11 00:48:20;;;;;;;58.33;3.30;;;17.90;93.80;;;;;;5071589;28;20947;-69
2021/09/11 00:50:47;;;;;;;58.07;3.43;;;17.90;94.00;;;;;;5071196;28;20450;-69
2021/09/11 00:53:15;;;;;;;58.43;3.23;;;17.90;94.10;;;;;;5069089;28;20557;-68
2021/09/11 00:55:51;;;;;;;58.77;3.40;;;17.90;94.70;;;;;;5071070;28;20452;-69
2021/09/11 00:58:20;;;;;;;58.40;3.13;;;17.90;93.60;;;;;;5071199;28;20542;-69
2021/09/11 01:00:47;;;;;;;58.30;3.67;;;17.90;93.30;;;;;;5070716;28;20546;-69
2021/09/11 01:03:13;;;;;;;58.33;2.93;;;17.90;92.50;;;;;;5057898;28;20574;-69
2021/09/11 01:05:41;;;;;;;58.20;2.50;;;17.90;92.70;;;;;;5051175;28;20494;-69
2021/09/11 01:08:08;;;;;;;58.07;3.10;;;17.90;93.00;;;;;;5051609;28;20514;-69
2021/09/11 01:10:38;;;;;;;59.30;4.30;;;17.90;93.00;;;;;;5052926;28;20944;-69
2021/09/11 01:13:05;;;;;;;58.27;3.63;;;17.90;92.70;;;;;;5054866;28;20464;-69
2021/09/11 01:15:35;;;;;;;58.50;3.30;;;17.90;92.60;;;;;;5054909;28;20530;-69
2021/09/11 01:18:02;;;;;;;58.90;3.93;;;17.90;92.60;;;;;;5054875;28;20872;-69
2021/09/11 01:20:29;;;;;;;58.70;3.10;;;17.90;92.60;;;;;;5054536;28;20531;-69
2021/09/11 01:22:56;;;;;;;58.43;2.93;;;17.80;92.20;;;;;;5054813;28;20559;-69
2021/09/11 01:25:25;;;;;;;58.07;2.90;;;17.80;92.60;;;;;;5053549;28;20460;-69
2021/09/11 01:27:53;;;;;;;59.07;3.67;;;17.80;92.60;;;;;;5054739;28;20545;-69
2021/09/11 01:30:22;;;;;;;58.50;3.00;;;17.80;92.60;;;;;;5054238;28;20443;-69
2021/09/11 01:32:50;;;;;;;58.40;3.67;;;17.70;93.10;;;;;;5054447;28;20543;-69
2021/09/11 01:35:18;;;;;;;57.90;3.23;;;17.70;93.90;;;;;;5054152;28;20542;-69
2021/09/11 01:37:44;;;;;;;58.40;2.73;;;17.70;94.20;;;;;;5054104;28;20452;-69
2021/09/11 01:40:12;;;;;;;58.13;3.10;;;17.70;95.70;;;;;;5053847;28;20443;-69
2021/09/11 01:42:41;;;;;;;57.83;3.10;;;17.60;97.20;;;;;;5054053;28;20452;-69
2021/09/11 01:45:10;;;;;;;58.20;3.47;;;17.60;95.40;;;;;;5053954;28;20490;-69
2021/09/11 01:47:38;;;;;;;58.17;3.27;;;17.60;96.00;;;;;;5053862;28;20962;-69
2021/09/11 01:50:06;;;;;;;58.50;2.90;;;17.60;95.60;;;;;;5053564;28;20539;-69
2021/09/11 01:52:33;;;;;;;58.20;3.20;;;17.60;96.00;;;;;;5053937;28;20479;-67
2021/09/11 01:55:00;;;;;;;58.60;3.40;;;17.60;95.80;;;;;;5053896;28;20448;-67
2021/09/11 01:57:27;;;;;;;59.47;3.63;;;17.60;96.00;;;;;;5057303;28;20815;-67
2021/09/11 01:59:55;;;;;;;58.80;2.90;;;17.50;96.70;;;;;;5071315;28;20450;-67
2021/09/11 02:02:22;;;;;;;59.10;3.30;;;17.50;96.10;;;;;;5073375;28;21029;-68
2021/09/11 02:04:48;;;;;;;59.13;4.10;;;17.50;95.90;;;;;;5073718;28;20524;-68
2021/09/11 02:07:15;;;;;;;58.57;3.73;;;17.50;95.50;;;;;;5073482;28;20538;-67
2021/09/11 02:09:42;;;;;;;58.90;3.83;;;17.50;95.40;;;;;;5073095;28;20443;-67
2021/09/11 02:12:09;;;;;;;58.20;2.90;;;17.50;95.10;;;;;;5073725;28;20900;-68
2021/09/11 02:14:36;;;;;;;58.17;3.00;;;17.50;94.80;;;;;;5073512;28;20879;-67
2021/09/11 02:17:05;;;;;;;58.37;2.97;;;17.50;95.00;;;;;;5073285;28;20461;-67
2021/09/11 02:19:33;;;;;;;58.40;3.57;;;17.50;95.60;;;;;;5073022;28;20541;-67
2021/09/11 02:22:00;;;;;;;59.20;4.30;;;17.50;96.00;;;;;;5072747;28;20458;-67
2021/09/11 02:24:29;;;;;;;58.30;3.20;;;17.50;96.20;;;;;;5072577;28;20496;-67
2021/09/11 02:26:56;;;;;;;58.33;3.43;;;17.50;96.00;;;;;;5073440;28;20451;-67
2021/09/11 02:29:23;;;;;;;58.57;3.17;;;17.50;97.40;;;;;;5071060;28;20541;-67
2021/09/11 02:31:49;;;;;;;59.00;3.10;;;17.50;95.90;;;;;;5073001;28;20453;-67
2021/09/11 02:34:18;;;;;;;58.27;2.80;;;17.50;95.00;;;;;;5072936;28;20501;-67
2021/09/11 02:36:44;;;;;;;58.23;2.90;;;17.50;95.80;;;;;;5072737;28;20482;-68
2021/09/11 02:39:11;;;;;;;58.40;3.00;;;17.50;96.40;;;;;;5072885;28;20493;-68
2021/09/11 02:41:38;;;;;;;58.30;3.07;;;17.50;98.40;;;;;;5072875;28;20435;-68
2021/09/11 02:44:06;;;;;;;58.30;3.10;;;17.50;95.70;;;;;;5072868;28;20909;-68
2021/09/11 02:46:33;;;;;;;58.17;3.50;;;17.50;95.20;;;;;;5072808;28;20544;-68
2021/09/11 02:49:01;;;;;;;58.37;3.50;;;17.50;94.70;;;;;;5072665;28;20457;-68
2021/09/11 02:51:30;;;;;;;58.13;3.17;;;17.50;94.50;;;;;;5072394;28;20887;-68
2021/09/11 02:53:57;;;;;;;58.23;3.10;;;17.50;94.00;;;;;;5072593;28;20466;-68
2021/09/11 02:56:23;;;;;;;58.70;3.50;;;17.50;93.90;;;;;;5072467;28;20987;-68
2021/09/11 02:58:50;;;;;;;58.40;2.63;;;17.50;93.80;;;;;;5072639;28;20542;-68
2021/09/11 03:01:17;;;;;;;58.60;3.67;;;17.50;93.20;;;;;;5070051;28;20891;-68
2021/09/11 03:03:44;;;;;;;58.40;2.93;;;17.50;93.50;;;;;;5071962;28;20491;-68
2021/09/11 03:06:11;;;;;;;58.17;3.57;;;17.50;93.60;;;;;;5072284;28;20451;-68
2021/09/11 03:08:39;;;;;;;59.23;3.47;;;17.50;94.40;;;;;;5072512;28;20488;-68
2021/09/11 03:11:06;;;;;;;60.20;4.43;;;17.50;94.90;;;;;;5072013;28;20978;-68
2021/09/11 03:13:33;;;;;;;58.20;2.93;;;17.50;94.90;;;;;;5072170;28;20558;-68
2021/09/11 03:16:00;;;;;;;58.00;3.00;;;17.50;94.70;;;;;;5072270;28;20447;-68
2021/09/11 03:18:27;;;;;;;58.80;3.63;;;17.50;94.60;;;;;;5072096;28;20443;-68
2021/09/11 03:20:53;;;;;;;58.40;3.20;;;17.50;94.00;;;;;;5072076;28;20486;-68
2021/09/11 03:23:20;;;;;;;57.97;2.70;;;17.50;93.40;;;;;;5072053;28;20558;-68
2021/09/11 03:25:48;;;;;;;58.27;3.20;;;17.50;92.90;;;;;;5072226;28;20504;-68
2021/09/11 03:28:15;;;;;;;58.40;2.90;;;17.60;93.40;;;;;;5072164;28;20890;-68
2021/09/11 03:30:42;;;;;;;58.07;2.80;;;17.60;92.20;;;;;;5071772;28;20447;-68
2021/09/11 03:33:09;;;;;;;57.93;2.93;;;17.60;92.40;;;;;;5069971;28;20467;-68
2021/09/11 03:35:36;;;;;;;58.60;3.17;;;17.50;92.20;;;;;;5071523;28;20453;-68
2021/09/11 03:38:03;;;;;;;58.30;2.70;;;17.60;91.80;;;;;;5071999;28;20452;-68
2021/09/11 03:40:29;;;;;;;58.90;3.57;;;17.60;92.20;;;;;;5071766;28;20544;-68
2021/09/11 03:42:58;;;;;;;58.50;3.00;;;17.50;92.30;;;;;;5071696;28;20554;-68
2021/09/11 03:45:25;;;;;;;58.13;2.70;;;17.50;91.80;;;;;;5071634;28;20486;-68
2021/09/11 03:47:51;;;;;;;58.10;3.03;;;17.50;91.20;;;;;;5072076;28;20447;-68
2021/09/11 03:50:18;;;;;;;58.80;3.27;;;17.50;90.40;;;;;;5071651;28;20927;-69
2021/09/11 03:52:45;;;;;;;58.47;3.40;;;17.50;91.10;;;;;;5071669;28;20558;-68
2021/09/11 03:55:12;;;;;;;58.27;2.80;;;17.50;91.00;;;;;;5072051;28;20531;-68
2021/09/11 03:57:40;;;;;;;58.10;2.70;;;17.50;90.10;;;;;;5071948;28;20450;-68
2021/09/11 04:00:10;;;;;;;58.60;3.67;;;17.60;89.30;;;;;;5071287;28;20540;-68
2021/09/11 04:02:37;;;;;;;58.40;2.90;;;17.60;88.40;;;;;;5071439;28;21029;-68
2021/09/11 04:05:04;;;;;;;58.60;3.03;;;17.60;88.90;;;;;;5069610;28;20581;-68
2021/09/11 04:07:31;;;;;;;60.37;3.30;;;17.60;88.80;;;;;;5072014;28;20812;-68
2021/09/11 04:09:58;;;;;;;58.20;3.00;;;17.60;87.10;;;;;;5071494;28;20447;-67
2021/09/11 04:12:26;;;;;;;58.20;2.97;;;17.60;86.60;;;;;;5071465;28;20486;-67
2021/09/11 04:14:52;;;;;;;58.13;3.50;;;17.60;84.00;;;;;;5072153;28;20448;-67
2021/09/11 04:17:21;;;;;;;58.30;2.83;;;17.60;84.00;;;;;;5071720;28;20477;-67
2021/09/11 04:19:48;;;;;;;58.37;2.90;;;17.60;84.50;;;;;;5071500;28;20533;-67
2021/09/11 04:22:14;;;;;;;58.30;2.97;;;17.60;85.70;;;;;;5071597;28;20446;-67
2021/09/11 04:24:41;;;;;;;58.40;3.30;;;17.60;84.70;;;;;;5071290;28;20581;-67
2021/09/11 04:27:08;;;;;;;58.47;3.80;;;17.60;84.20;;;;;;5071832;28;20504;-67
2021/09/11 04:29:35;;;;;;;58.40;2.90;;;17.60;83.50;;;;;;5071124;28;20458;-67
2021/09/11 04:32:02;;;;;;;58.60;3.53;;;17.60;82.70;;;;;;5071319;28;20450;-67
2021/09/11 04:34:30;;;;;;;58.90;3.00;;;17.60;83.00;;;;;;5071696;28;20553;-67
2021/09/11 04:36:57;;;;;;;58.20;2.70;;;17.60;84.20;;;;;;5069774;28;20447;-68
2021/09/11 04:39:24;;;;;;;58.30;2.77;;;17.60;86.20;;;;;;5071089;28;20531;-68
2021/09/11 04:41:50;;;;;;;58.03;2.50;;;17.60;87.00;;;;;;5071150;28;20478;-68
2021/09/11 04:44:17;;;;;;;58.00;2.50;;;17.60;87.10;;;;;;5071222;28;20576;-68
2021/09/11 04:46:44;;;;;;;58.17;3.27;;;17.60;87.40;;;;;;5072863;28;20545;-68
2021/09/11 04:49:11;;;;;;;58.20;2.97;;;17.60;88.30;;;;;;5074725;28;20461;-68
2021/09/11 04:51:39;;;;;;;58.20;3.60;;;17.60;88.90;;;;;;5074839;28;20460;-68
2021/09/11 04:54:06;;;;;;;58.10;2.50;;;17.60;89.70;;;;;;5074711;28;20994;-68
2021/09/11 04:56:33;;;;;;;58.97;3.20;;;17.60;87.20;;;;;;5075064;28;20537;-68
2021/09/11 04:58:59;;;;;;;57.87;2.87;;;17.60;86.60;;;;;;5075051;28;20457;-68
2021/09/11 05:01:26;;;;;;;57.77;3.30;;;17.60;86.70;;;;;;5074629;28;20446;-68
2021/09/11 05:03:53;;;;;;;57.83;2.77;;;17.60;85.80;;;;;;5074519;28;20512;-68
2021/09/11 05:06:20;;;;;;;58.50;3.07;;;17.60;86.30;;;;;;5074494;28;20482;-68
2021/09/11 05:08:48;;;;;;;57.80;2.90;;;17.60;87.70;;;;;;5054041;28;20967;-68
2021/09/11 05:11:15;;;;;;;58.20;3.20;;;17.60;88.20;;;;;;5054531;28;20456;-68
2021/09/11 05:13:42;;;;;;;60.10;4.40;;;17.50;87.40;;;;;;5054673;28;20473;-68
2021/09/11 05:16:09;;;;;;;57.97;3.20;;;17.50;86.00;;;;;;5054480;28;20553;-68
2021/09/11 05:18:36;;;;;;;58.40;3.13;;;17.50;86.70;;;;;;5053973;28;20470;-68
2021/09/11 05:21:05;;;;;;;58.57;3.10;;;17.50;87.40;;;;;;5054306;28;20483;-68
2021/09/11 05:23:32;;;;;;;58.83;3.03;;;17.50;89.60;;;;;;5054260;28;20781;-68
2021/09/11 05:26:00;;;;;;;58.27;2.77;;;17.40;90.20;;;;;;5054211;28;20481;-68
2021/09/11 05:28:28;;;;;;;58.80;3.20;;;17.40;90.80;;;;;;5054396;28;20465;-68
2021/09/11 05:30:54;;;;;;;58.20;3.20;;;17.40;89.80;;;;;;5054100;28;20946;-68
2021/09/11 05:33:21;;;;;;;58.03;2.87;;;17.40;88.80;;;;;;5054188;28;20554;-68
2021/09/11 05:35:48;;;;;;;58.50;3.07;;;17.40;87.80;;;;;;5053962;28;20447;-67
2021/09/11 05:38:15;;;;;;;57.53;2.70;;;17.40;88.00;;;;;;5052895;28;21039;-67
2021/09/11 05:40:42;;;;;;;58.30;2.97;;;17.40;88.30;;;;;;5054134;28;20447;-68
2021/09/11 05:43:12;;;;;;;58.60;2.90;;;17.40;87.90;;;;;;5054302;28;20562;-68
2021/09/11 05:45:38;;;;;;;59.87;4.20;;;17.40;87.60;;;;;;5053810;28;20583;-68
2021/09/11 05:48:06;;;;;;;58.77;3.50;;;17.40;87.70;;;;;;5053437;28;20456;-67
2021/09/11 05:50:32;;;;;;;58.70;3.70;;;17.50;86.70;;;;;;5053535;28;20574;-67
2021/09/11 05:52:59;;;;;;;58.17;2.80;;;17.50;84.10;;;;;;5054193;28;20563;-67
2021/09/11 05:55:26;;;;;;;58.00;2.53;;;17.50;82.90;;;;;;5053959;28;20484;-68
2021/09/11 05:57:53;;;;;;;58.20;2.60;;;17.50;82.10;;;;;;5053339;28;20534;-68
2021/09/11 06:00:22;;;;;;;58.70;3.27;;;17.50;80.60;;;;;;5053528;28;20539;-67
2021/09/11 06:02:48;;;;;;;58.00;2.97;;;17.50;80.50;;;;;;5053751;28;20571;-68
2021/09/11 06:05:15;;;;;;;57.37;2.50;;;17.50;81.40;;;;;;5053350;28;20490;-68
2021/09/11 06:07:42;;;;;;;58.00;3.13;;;17.50;84.00;;;;;;5053648;28;20479;-68
2021/09/11 06:10:10;;;;;;;57.83;2.70;;;17.50;87.00;;;;;;5062170;28;20458;-68
2021/09/11 06:12:37;;;;;;;58.53;3.40;;;17.50;89.20;;;;;;5073468;28;20446;-68
2021/09/11 06:15:06;;;;;;;58.60;3.37;;;17.40;91.10;;;;;;5073709;28;20482;-68
2021/09/11 06:17:34;;;;;;;58.27;3.30;;;17.40;92.00;;;;;;5073129;28;21022;-68
2021/09/11 06:20:01;;;;;;;58.70;3.53;;;17.40;93.20;;;;;;5073330;28;20538;-68
2021/09/11 06:22:28;;;;;;;58.50;2.67;;;17.40;94.10;;;;;;5073396;28;20483;-68
2021/09/11 06:24:55;;;;;;;58.10;2.57;;;17.40;94.10;;;;;;5073266;28;20487;-68
2021/09/11 06:27:22;;;;;;;58.60;2.80;;;17.40;93.70;;;;;;5072955;28;20889;-68
2021/09/11 06:29:49;;;;;;;57.80;2.77;;;17.50;93.40;;;;;;5072965;28;20529;-68
2021/09/11 06:32:15;;;;;;;58.50;3.10;;;17.50;93.30;;;;;;5072978;28;20483;-68
2021/09/11 06:34:44;;;;;;;58.40;3.27;;;17.50;93.20;;;;;;5072968;28;21015;-68
2021/09/11 06:37:10;;;;;;;57.83;2.70;;;17.50;93.60;;;;;;5072906;28;21042;-68
2021/09/11 06:39:37;;;;;;;59.13;3.27;;;17.50;94.20;;;;;;5072745;28;20450;-68
2021/09/11 06:42:04;;;;;;;58.27;2.87;;;17.50;94.20;;;;;;5055578;28;20451;-68
2021/09/11 06:44:31;;;;;;;58.17;2.93;;;17.50;94.70;;;;;;5052642;28;20551;-68
2021/09/11 06:46:58;;;;;;;58.20;3.00;;;17.50;95.20;;;;;;5052498;28;20544;-68
2021/09/11 06:49:25;;;;;;;57.77;2.83;;;17.50;95.70;;;;;;5052915;28;20868;-68
2021/09/11 06:51:53;;;;;;;58.00;2.50;;;17.50;96.60;;;;;;5052662;28;20948;-68
2021/09/11 06:54:20;;;;;;;58.30;3.13;;;17.50;97.40;;;;;;5052594;28;20990;-68
2021/09/11 06:56:47;;;;;;;57.57;2.70;;;17.50;97.90;;;;;;5052630;28;20444;-68
2021/09/11 06:59:14;;;;;;;58.07;2.90;;;17.60;98.40;;;;;;5052224;28;20451;-68
2021/09/11 07:01:40;;;;;;;58.00;2.90;;;17.60;98.60;;;;;;5052466;28;20908;-69
2021/09/11 07:04:08;;;;;;;58.33;2.83;;;17.70;98.80;;;;;;5052325;28;20484;-69
2021/09/11 07:06:34;;;;;;;58.03;2.70;;;17.80;98.30;;;;;;5052174;28;20480;-68
2021/09/11 07:09:03;;;;;;;57.87;2.50;;;17.80;96.60;;;;;;5055308;28;20443;-67
2021/09/11 07:11:30;;;;;;;58.10;2.90;;;18.00;95.10;;;;;;5072172;28;20444;-67
2021/09/11 07:13:57;;;;;;;57.87;2.60;;;18.10;94.00;;;;;;5072096;28;20649;-67
2021/09/11 07:16:24;;;;;;;59.50;3.47;;;18.20;94.10;;;;;;5071973;28;20440;-67
2021/09/11 07:18:51;;;;;;;58.60;3.17;;;18.30;93.90;;;;;;5072347;28;20439;-67
2021/09/11 07:21:17;;;;;;;58.30;3.13;;;18.30;94.00;;;;;;5071864;28;20450;-67
2021/09/11 07:23:44;;;;;;;57.93;2.53;;;18.30;93.30;;;;;;5072094;28;20475;-67
2021/09/11 07:26:18;;;;;;;57.57;2.73;;;18.40;93.20;;;;;;5071649;28;20486;-67
2021/09/11 07:28:45;;;;;;;58.00;2.40;;;18.40;92.60;;;;;;5072168;28;20448;-67
2021/09/11 07:31:12;;;;;;;58.10;2.90;;;18.40;92.40;;;;;;5071792;28;20481;-67
2021/09/11 07:33:39;;;;;;;57.77;2.60;;;18.40;91.90;;;;;;5072082;28;20476;-67
2021/09/11 07:36:06;;;;;;;58.10;2.83;;;18.50;87.50;;;;;;5072059;28;20451;-68
2021/09/11 07:38:33;;;;;;;57.90;2.40;;;18.60;80.50;;;;;;5069881;28;20452;-68
2021/09/11 07:41:00;;;;;;;58.03;3.00;;;18.80;70.60;;;;;;5071664;28;20530;-68
2021/09/11 07:43:28;;;;;;;57.73;2.90;;;19.00;63.50;;;;;;5071945;28;20473;-68
2021/09/11 07:45:55;;;;;;;57.77;2.60;;;19.10;60.60;;;;;;5071952;28;20911;-68
2021/09/11 07:48:22;;;;;;;58.37;3.20;;;19.10;64.90;;;;;;5071464;28;20598;-68
2021/09/11 07:50:49;;;;;;;57.97;2.60;;;19.10;62.80;;;;;;5071684;28;20448;-68
2021/09/11 07:53:16;;;;;;;58.00;3.20;;;19.10;48.80;;;;;;5073869;28;20469;-68
2021/09/11 07:55:43;;;;;;;58.00;2.70;;;19.20;44.70;;;;;;5071894;28;20449;-68
2021/09/11 07:58:10;;;;;;;57.33;2.70;;;19.20;45.50;;;;;;5072048;28;20532;-68
2021/09/11 08:00:38;;;;;;;57.77;2.77;;;19.20;20.70;;;;;;5071815;28;20536;-68
2021/09/11 08:03:05;;;;;;;57.57;2.73;;;19.30;14.30;;;;;;5071483;28;20577;-68
2021/09/11 08:05:32;;;;;;;58.10;3.10;;;19.30;14.70;;;;;;5071586;28;20485;-68
2021/09/11 08:07:59;;;;;;;58.20;3.77;;;19.30;5.60;;;;;;5071153;28;20469;-68
2021/09/11 08:10:26;;;;;;;57.87;2.50;;;19.30;1.00;;;;;;5069351;28;20538;-68
2021/09/11 08:12:53;;;;;;;58.07;2.83;;;19.40;1.00;;;;;;5071490;28;21007;-68
2021/09/11 08:15:21;;;;;;;57.90;2.90;;;19.40;1.00;;;;;;5071460;28;20536;-67
2021/09/11 08:17:49;;;;;;;57.50;2.60;;;19.50;1.00;;;;;;5071394;28;20449;-68
2021/09/11 08:20:16;;;;;;;58.43;2.87;;;19.50;8.30;;;;;;5072033;28;20543;-68
2021/09/11 08:22:44;;;;;;;58.27;3.27;;;19.50;25.10;;;;;;5075347;28;20547;-68
2021/09/11 08:25:11;;;;;;;58.10;3.27;;;19.60;14.70;;;;;;5075397;28;20447;-68
2021/09/11 08:27:38;;;;;;;58.00;2.97;;;19.80;1.00;;;;;;5075560;28;20545;-68
2021/09/11 08:30:06;;;;;;;58.23;3.10;;;20.10;1.00;;;;;;5074409;28;20545;-68
2021/09/11 08:32:35;;;;;;;58.30;2.80;;;20.10;1.00;;;;;;5075141;28;20960;-68
2021/09/11 08:35:04;;;;;;;57.57;2.50;;;20.10;1.00;;;;;;5074411;28;20450;-68
2021/09/11 08:37:31;;;;;;;57.87;2.90;;;20.20;1.00;;;;;;5075451;28;20447;-68
2021/09/11 08:39:58;;;;;;;58.77;3.00;;;20.30;1.00;;;;;;5075166;28;20930;-67
2021/09/11 08:42:25;;;;;;;57.77;2.80;;;20.40;1.00;;;;;;5058958;28;20530;-67
2021/09/11 08:44:52;;;;;;;57.87;2.83;;;20.60;1.00;;;;;;5055084;28;20958;-68
2021/09/11 08:47:19;;;;;;;57.87;2.63;;;20.70;1.00;;;;;;5054716;28;21082;-68
2021/09/11 08:49:46;;;;;;;58.07;2.50;;;20.80;1.00;;;;;;5054460;28;20988;-67
2021/09/11 08:52:14;;;;;;;57.77;2.57;;;20.90;1.00;;;;;;5054989;28;20448;-68
2021/09/11 08:54:41;;;;;;;58.37;2.87;;;20.90;1.00;;;;;;5054855;28;20551;-68
2021/09/11 08:57:20;;;;;;;58.20;2.57;;;21.00;1.00;;;;;;5054825;28;20450;-68
2021/09/11 08:59:47;;;;;;;57.57;2.73;;;21.20;1.00;;;;;;5054889;28;20501;-68
2021/09/11 09:02:14;;;;;;;58.37;3.00;;;21.30;1.00;;;;;;5054590;28;20444;-68
2021/09/11 09:04:46;;;;;;;58.17;2.77;;;21.50;1.00;;;;;;5054823;28;20956;-68
2021/09/11 09:07:29;;;;;;;58.70;3.30;;;21.80;1.00;;;;;;5054629;28;20494;-68
2021/09/11 09:09:58;;;;;;;57.97;2.40;;;22.20;1.00;;;;;;5054371;28;20444;-68
2021/09/11 09:12:25;;;;;;;57.57;2.70;;;22.40;1.00;;;;;;5052877;28;20452;-68
2021/09/11 09:15:00;;;;;;;58.47;2.80;;;22.50;1.00;;;;;;5054526;28;20450;-68
2021/09/11 09:17:41;;;;;;;58.13;2.60;;;22.50;1.00;;;;;;5054618;28;20461;-68
2021/09/11 09:20:14;;;;;;;58.00;2.67;;;22.40;1.00;;;;;;5054346;28;20531;-68
2021/09/11 09:22:42;;;;;;;59.00;3.23;;;22.10;1.00;;;;;;5054443;28;20527;-68
2021/09/11 09:25:21;;;;;;;58.17;2.50;;;22.00;1.00;;;;;;5054276;28;20488;-68
2021/09/11 09:27:51;;;;;;;57.97;2.30;;;21.70;1.00;;;;;;5054040;28;20979;-68
2021/09/11 09:30:24;;;;;;;58.00;2.27;;;21.50;1.00;;;;;;5053991;28;20534;-68
2021/09/11 09:32:52;;;;;;;58.03;2.40;;;21.40;1.00;;;;;;5053591;28;20535;-68
2021/09/11 09:35:23;;;;;;;58.23;2.87;;;21.40;1.00;;;;;;5054136;28;20948;-68
2021/09/11 09:37:58;;;;;;;58.03;2.43;;;21.30;1.00;;;;;;5054445;28;20514;-68
2021/09/11 09:40:40;;;;;;;58.07;2.50;;;21.30;1.00;;;;;;5054092;28;20450;-68
2021/09/11 09:43:08;;;;;;;57.73;2.57;;;21.30;1.00;;;;;;5053552;28;20471;-68
2021/09/11 09:45:36;;;;;;;57.67;2.40;;;21.50;1.00;;;;;;5074005;28;20455;-68
2021/09/11 09:48:06;;;;;;;58.33;2.63;;;21.80;1.00;;;;;;5073615;28;20443;-68
2021/09/11 09:50:35;;;;;;;57.57;2.70;;;21.90;1.00;;;;;;5073782;28;20534;-68
2021/09/11 09:53:04;;;;;;;58.37;2.50;;;22.00;1.00;;;;;;5073970;28;20487;-68
2021/09/11 09:55:31;;;;;;;58.00;2.30;;;22.20;1.00;;;;;;5073855;28;20538;-68
2021/09/11 09:57:58;;;;;;;58.10;2.63;;;23.00;1.00;;;;;;5073809;28;20449;-68
2021/09/11 10:00:25;;;;;;;57.83;2.40;;;24.20;1.00;;;;;;5073782;28;20541;-70
2021/09/11 10:02:52;;;;;;;57.77;2.40;;;24.80;1.00;;;;;;5073685;28;20513;-69
2021/09/11 10:05:21;;;;;;;57.53;2.50;;;24.90;1.00;;;;;;5073593;28;20530;-69
2021/09/11 10:07:56;;;;;;;58.10;2.40;;;24.90;1.00;;;;;;5073614;28;20859;-69
2021/09/11 10:10:30;;;;;;;59.17;3.80;;;24.80;1.00;;;;;;5072172;28;20456;-69
2021/09/11 10:13:12;;;;;;;58.53;2.57;;;24.70;1.00;;;;;;5073100;28;20549;-69
2021/09/11 10:15:51;;;;;;;58.10;2.40;;;24.50;1.00;;;;;;5061056;28;20535;-69
2021/09/11 10:18:40;;;;;;;57.50;2.47;;;24.30;1.00;;;;;;5053475;28;20496;-70
2021/09/11 10:21:38;;;;;;;58.00;2.60;;;24.00;1.00;;;;;;5052870;28;20486;-70
2021/09/11 10:24:36;;;;;;;57.67;2.30;;;23.60;1.00;;;;;;5019062;28;20487;-70
2021/09/11 10:27:11;;;;;;;58.50;2.67;;;23.40;1.00;;;;;;5052948;28;20531;-70
2021/09/11 10:29:52;;;;;;;58.00;2.20;;;23.50;1.00;;;;;;5053135;28;20485;-70
2021/09/11 10:32:24;;;;;;;57.83;2.30;;;23.70;1.00;;;;;;5053242;28;20532;-70
2021/09/11 10:34:54;;;;;;;58.07;2.60;;;23.80;1.00;;;;;;5053214;28;20451;-70
2021/09/11 10:37:40;;;;;;;57.87;2.30;;;23.90;1.00;;;;;;5053177;28;20438;-69
2021/09/11 10:40:27;;;;;;;58.07;2.57;;;24.10;1.00;;;;;;5052506;28;20444;-70
2021/09/11 10:43:17;;;;;;;57.67;2.60;;;24.60;1.00;;;;;;5052906;28;20617;-70
2021/09/11 10:45:47;;;;;;;58.10;2.27;;;25.50;1.00;;;;;;5052127;28;20444;-68
2021/09/11 10:48:42;;;;;;;57.87;2.40;;;26.40;1.00;;;;;;5051523;28;20452;-68
2021/09/11 10:51:24;;;;;;;57.67;2.10;;;26.80;1.00;;;;;;5052243;28;20448;-69
2021/09/11 10:54:30;;;;;;;57.87;2.40;;;27.00;1.00;;;;;;5052708;28;20465;-68
2021/09/11 10:57:09;;;;;;;57.90;2.43;;;27.90;1.00;;;;;;4990883;28;20971;-69
2021/09/11 10:59:42;;;;;;;57.87;2.43;;;29.10;1.00;;;;;;4990696;28;20471;-68
2021/09/11 11:02:24;;;;;;;58.07;2.60;;;29.60;1.00;;;;;;4990765;28;20558;-69
2021/09/11 11:05:03;;;;;;;57.33;2.10;;;30.40;1.00;;;;;;5150735;27;21028;-68
2021/09/11 11:07:32;;;;;;;57.30;2.63;;;31.10;1.00;;;;;;5150537;27;20478;-68
2021/09/11 11:10:01;;;;;;;57.47;2.40;;;31.20;1.00;;;;;;5150224;27;20966;-68
2021/09/11 11:12:29;;;;;;;57.17;2.10;;;30.90;1.00;;;;;;5150941;27;20520;-70
2021/09/11 11:14:58;;;;;;;57.67;2.10;;;30.30;1.00;;;;;;5171427;27;20519;-68
2021/09/11 11:17:26;;;;;;;58.70;3.30;;;29.50;1.00;;;;;;5170076;27;20534;-68
2021/09/11 11:19:54;;;;;;;57.60;2.60;;;28.50;1.00;;;;;;5171286;27;20546;-68
2021/09/11 11:22:28;;;;;;;58.20;2.50;;;27.70;1.00;;;;;;5171631;27;20452;-68
2021/09/11 11:24:55;;;;;;;58.53;2.40;;;27.10;1.00;;;;;;5172270;27;20496;-68
2021/09/11 11:27:25;;;;;;;57.30;2.13;;;26.80;1.00;;;;;;5171335;27;20456;-69
2021/09/11 11:29:54;;;;;;;57.70;2.60;;;27.50;1.00;;;;;;5170696;27;20446;-71
2021/09/11 11:32:24;;;;;;;57.57;2.50;;;28.90;1.00;;;;;;5171057;27;20443;-69
2021/09/11 11:34:55;;;;;;;57.80;2.33;;;29.80;1.00;;;;;;5171423;27;20453;-69
2021/09/11 11:37:22;;;;;;;57.60;2.50;;;29.70;1.00;;;;;;5171331;27;20535;-69
2021/09/11 11:39:50;;;;;;;57.90;2.63;;;28.80;1.00;;;;;;5170773;27;20449;-69
2021/09/11 11:42:23;;;;;;;57.73;2.50;;;27.80;1.00;;;;;;5171017;27;20443;-69
2021/09/11 11:44:52;;;;;;;57.90;2.47;;;26.90;1.00;;;;;;5170878;27;20477;-69
2021/09/11 11:47:46;;;;;;;57.97;2.40;;;26.10;1.00;;;;;;5171115;27;20447;-69
2021/09/11 11:50:17;;;;;;;57.97;2.30;;;25.20;1.00;;;;;;5157633;27;20455;-70
2021/09/11 11:52:45;;;;;;;58.80;2.93;;;24.60;1.00;;;;;;5149979;27;20446;-70
2021/09/11 11:55:14;;;;;;;57.90;2.20;;;24.10;1.00;;;;;;5149866;27;20459;-70
2021/09/11 11:57:41;;;;;;;58.60;2.90;;;23.60;1.00;;;;;;5150290;27;20448;-70
2021/09/11 12:00:11;;;;;;;57.93;2.20;;;23.40;1.00;;;;;;5149888;27;20540;-70
2021/09/11 12:02:40;;;;;;;57.87;2.30;;;23.10;1.00;;;;;;5149686;27;20949;-70
2021/09/11 12:05:18;;;;;;;58.27;2.70;;;23.00;1.00;;;;;;5149746;27;20484;-70
2021/09/11 12:07:57;;;;;;;57.80;2.60;;;22.60;1.00;;;;;;5150047;27;20477;-70
2021/09/11 12:10:27;;;;;;;58.50;2.60;;;22.10;1.00;;;;;;5149383;27;20542;-70
2021/09/11 12:12:55;;;;;;;58.43;2.57;;;21.70;1.00;;;;;;5149511;27;20468;-69
2021/09/11 12:15:24;;;;;;;58.80;3.27;;;21.30;1.00;;;;;;5141188;27;20451;-69
2021/09/11 12:18:02;;;;;;;58.80;3.10;;;20.90;1.00;;;;;;5135577;27;20480;-69
2021/09/11 12:20:31;;;;;;;59.43;2.83;;;20.70;1.00;;;;;;5134677;27;20527;-69
2021/09/11 12:23:11;;;;;;;58.50;2.63;;;20.60;1.00;;;;;;5135816;27;20551;-69
2021/09/11 12:25:54;;;;;;;58.90;3.30;;;20.60;1.00;;;;;;5135947;27;20452;-69
2021/09/11 12:28:34;;;;;;;58.33;2.87;;;21.20;1.00;;;;;;5135655;27;20920;-69
2021/09/11 12:31:01;;;;;;;58.27;2.80;;;21.60;1.00;;;;;;5135016;27;20447;-69
2021/09/11 12:33:28;;;;;;;58.77;3.30;;;21.90;1.00;;;;;;5135628;27;20547;-69
2021/09/11 12:35:55;;;;;;;58.60;3.10;;;22.00;1.00;;;;;;5135489;27;20531;-69
2021/09/11 12:38:23;;;;;;;58.47;2.60;;;21.90;1.00;;;;;;5135566;27;20875;-69
2021/09/11 12:40:51;;;;;;;58.37;2.90;;;21.80;1.00;;;;;;5134798;27;21133;-69
2021/09/11 12:43:18;;;;;;;58.10;2.73;;;21.90;1.00;;;;;;5135170;27;20471;-68
2021/09/11 12:45:44;;;;;;;58.07;2.50;;;22.00;1.00;;;;;;5135296;27;20448;-69
2021/09/11 12:48:11;;;;;;;58.03;2.60;;;22.10;1.00;;;;;;5134985;27;20791;-68
2021/09/11 12:50:38;;;;;;;58.27;2.50;;;22.20;1.00;;;;;;5134400;27;20527;-69